createdAt,value
2023-03-30T00:01:24.323Z,0.30
2023-03-30T00:03:55.824Z,0.30
2023-03-30T00:06:24.925Z,0.30
2023-03-30T00:08:57.776Z,0.30
2023-03-30T00:11:28.200Z,0.30
2023-03-30T00:13:57.214Z,0.30
2023-03-30T00:16:26.022Z,0.30
2023-03-30T00:18:54.895Z,0.30
2023-03-30T00:21:23.932Z,0.30
2023-03-30T00:23:52.872Z,0.30
2023-03-30T00:26:22.199Z,0.30
2023-03-30T00:28:53.804Z,0.30
2023-03-30T00:31:23.298Z,0.30
2023-03-30T00:33:52.371Z,0.30
2023-03-30T00:36:22.986Z,0.30
2023-03-30T00:38:51.920Z,0.30
2023-03-30T00:41:20.899Z,0.30
2023-03-30T00:44:05.909Z,0.30
2023-03-30T00:46:35.257Z,0.30
2023-03-30T00:49:10.164Z,0.30
2023-03-30T00:51:43.325Z,0.30
2023-03-30T00:54:17.813Z,0.30
2023-03-30T00:56:47.106Z,0.35
2023-03-30T00:59:16.390Z,0.40
2023-03-30T01:01:51.017Z,0.40
2023-03-30T01:04:22.768Z,0.32
2023-03-30T01:06:52.739Z,0.30
2023-03-30T01:09:21.689Z,0.35
2023-03-30T01:11:50.458Z,0.30
2023-03-30T01:14:19.506Z,0.30
2023-03-30T01:17:14.534Z,0.30
2023-03-30T01:20:13.659Z,0.30
2023-03-30T01:23:02.633Z,0.30
2023-03-30T01:25:46.505Z,0.30
2023-03-30T01:28:51.375Z,0.30
2023-03-30T01:31:46.196Z,0.30
2023-03-30T01:34:34.922Z,0.30
2023-03-30T01:37:41.186Z,0.30
2023-03-30T01:40:21.955Z,0.30
2023-03-30T01:42:59.186Z,0.30
2023-03-30T01:45:39.988Z,0.30
2023-03-30T01:48:18.401Z,0.30
2023-03-30T01:50:54.609Z,0.30
2023-03-30T01:53:23.315Z,0.30
2023-03-30T01:56:00.040Z,0.30
2023-03-30T01:58:47.857Z,0.30
2023-03-30T02:01:21.382Z,0.30
2023-03-30T02:03:57.998Z,0.30
2023-03-30T02:06:39.335Z,0.30
2023-03-30T02:09:12.545Z,0.30
2023-03-30T02:11:46.362Z,0.30
2023-03-30T02:14:18.490Z,0.30
2023-03-30T02:17:17.937Z,0.30
2023-03-30T02:19:47.904Z,0.30
2023-03-30T02:22:20.467Z,0.30
2023-03-30T02:24:53.994Z,0.30
2023-03-30T02:27:25.778Z,0.30
2023-03-30T02:29:56.963Z,0.40
2023-03-30T02:32:34.873Z,0.40
2023-03-30T02:35:19.612Z,0.30
2023-03-30T02:38:06.823Z,0.40
2023-03-30T02:41:04.081Z,0.40
2023-03-30T02:43:45.347Z,0.30
2023-03-30T02:46:34.212Z,0.30
2023-03-30T02:49:15.612Z,0.30
2023-03-30T02:52:02.430Z,0.30
2023-03-30T02:54:48.739Z,0.30
2023-03-30T02:57:32.701Z,0.30
2023-03-30T03:00:38.858Z,0.30
2023-03-30T03:03:19.807Z,0.40
2023-03-30T03:05:56.692Z,0.30
2023-03-30T03:08:35.914Z,0.30
2023-03-30T03:11:07.962Z,0.30
2023-03-30T03:13:38.525Z,0.30
2023-03-30T03:16:11.532Z,0.30
2023-03-30T03:18:43.255Z,0.30
2023-03-30T03:21:14.456Z,0.30
2023-03-30T03:23:43.766Z,0.30
2023-03-30T03:26:13.627Z,0.30
2023-03-30T03:28:42.438Z,0.30
2023-03-30T03:31:12.818Z,0.30
2023-03-30T03:33:42.422Z,0.30
2023-03-30T03:36:24.794Z,0.30
2023-03-30T03:38:55.296Z,0.30
2023-03-30T03:41:24.224Z,0.30
2023-03-30T03:43:52.976Z,0.30
2023-03-30T03:46:21.992Z,0.30
2023-03-30T03:48:50.871Z,0.30
2023-03-30T03:51:19.665Z,0.30
2023-03-30T03:53:50.216Z,0.30
2023-03-30T03:56:19.265Z,0.30
2023-03-30T03:58:48.036Z,0.30
2023-03-30T04:01:18.015Z,0.30
2023-03-30T04:03:47.302Z,0.30
2023-03-30T04:06:15.999Z,0.40
2023-03-30T04:08:45.859Z,0.40
2023-03-30T04:11:27.274Z,0.40
2023-03-30T04:14:11.170Z,0.30
2023-03-30T04:17:00.275Z,0.30
2023-03-30T04:19:47.277Z,0.30
2023-03-30T04:22:24.928Z,0.30
2023-03-30T04:25:02.096Z,0.30
2023-03-30T04:27:51.976Z,0.35
2023-03-30T04:31:01.796Z,0.30
2023-03-30T04:34:05.453Z,0.30
2023-03-30T04:36:46.822Z,0.30
2023-03-30T04:39:33.916Z,0.30
2023-03-30T04:42:31.123Z,0.30
2023-03-30T04:45:11.956Z,0.30
2023-03-30T04:47:51.103Z,0.30
2023-03-30T04:50:25.911Z,0.30
2023-03-30T04:53:15.758Z,0.30
2023-03-30T04:56:02.915Z,0.30
2023-03-30T04:58:48.183Z,0.30
2023-03-30T05:01:41.169Z,0.30
2023-03-30T05:04:22.205Z,0.30
2023-03-30T05:07:10.370Z,0.30
2023-03-30T05:09:49.171Z,0.30
2023-03-30T05:12:57.432Z,0.30
2023-03-30T05:15:40.406Z,0.30
2023-03-30T05:18:50.030Z,0.30
2023-03-30T05:21:37.469Z,0.30
2023-03-30T05:24:27.140Z,0.35
2023-03-30T05:27:08.799Z,0.30
2023-03-30T05:29:52.343Z,0.30
2023-03-30T05:32:48.206Z,0.30
2023-03-30T05:35:46.509Z,0.30
2023-03-30T05:38:36.842Z,0.30
2023-03-30T05:41:32.594Z,0.40
2023-03-30T05:44:34.009Z,0.30
2023-03-30T05:47:22.687Z,0.30
2023-03-30T05:50:12.755Z,0.20
2023-03-30T05:53:03.145Z,0.30
2023-03-30T05:55:48.077Z,0.30
2023-03-30T05:58:55.662Z,0.30
2023-03-30T06:01:49.057Z,0.30
2023-03-30T06:04:18.958Z,0.30
2023-03-30T06:06:48.204Z,0.30
2023-03-30T06:09:19.474Z,0.30
2023-03-30T06:11:48.426Z,0.30
2023-03-30T06:14:24.997Z,0.30
2023-03-30T06:17:16.481Z,0.30
2023-03-30T06:19:46.157Z,0.30
2023-03-30T06:22:15.286Z,0.30
2023-03-30T06:27:33.825Z,0.30
2023-03-30T06:30:03.285Z,0.30
2023-03-30T06:32:33.060Z,0.30
2023-03-30T06:35:10.948Z,0.30
2023-03-30T06:37:40.229Z,0.30
2023-03-30T06:40:19.696Z,0.30
2023-03-30T06:42:51.387Z,0.32
2023-03-30T06:45:32.762Z,0.30
2023-03-30T06:48:02.721Z,0.30
2023-03-30T06:50:33.904Z,0.30
2023-03-30T06:53:05.120Z,0.30
2023-03-30T06:58:15.172Z,0.30
2023-03-30T07:00:44.967Z,0.30
2023-03-30T07:03:35.172Z,0.30
2023-03-30T07:06:14.134Z,0.30
2023-03-30T07:08:45.809Z,0.30
2023-03-30T07:13:48.390Z,0.30
2023-03-30T07:16:17.609Z,0.30
2023-03-30T07:18:46.500Z,0.30
2023-03-30T07:21:15.539Z,0.30
2023-03-30T07:23:45.384Z,0.30
2023-03-30T07:26:26.188Z,0.30
2023-03-30T07:29:00.680Z,0.30
2023-03-30T07:31:30.117Z,0.30
2023-03-30T07:33:59.658Z,0.30
2023-03-30T07:36:32.701Z,0.30
2023-03-30T07:39:01.915Z,0.30
2023-03-30T07:41:32.646Z,0.30
2023-03-30T07:44:02.017Z,0.30
2023-03-30T07:46:31.104Z,0.30
2023-03-30T07:49:00.170Z,0.30
2023-03-30T07:51:29.985Z,0.30
2023-03-30T07:54:11.016Z,0.30
2023-03-30T07:56:59.952Z,0.30
2023-03-30T07:59:28.716Z,0.30
2023-03-30T08:02:05.220Z,0.30
2023-03-30T08:04:55.586Z,0.40
2023-03-30T08:07:43.561Z,0.30
2023-03-30T08:10:21.655Z,0.30
2023-03-30T08:12:50.382Z,0.30
2023-03-30T08:15:19.236Z,0.30
2023-03-30T08:17:48.079Z,0.30
2023-03-30T08:20:16.918Z,0.30
2023-03-30T08:22:46.201Z,0.30
2023-03-30T08:25:15.116Z,0.30
2023-03-30T08:27:43.852Z,0.30
2023-03-30T08:30:15.149Z,0.30
2023-03-30T08:32:44.039Z,0.30
2023-03-30T08:35:13.577Z,0.30
2023-03-30T08:37:42.393Z,0.30
2023-03-30T08:40:15.928Z,0.30
2023-03-30T08:43:01.418Z,0.30
2023-03-30T08:45:41.841Z,0.30
2023-03-30T08:48:24.979Z,0.20
2023-03-30T08:51:12.802Z,0.30
2023-03-30T08:53:42.166Z,0.28
2023-03-30T08:56:29.252Z,0.30
2023-03-30T08:58:57.980Z,0.30
2023-03-30T09:01:46.556Z,0.30
2023-03-30T09:04:28.247Z,0.30
2023-03-30T09:07:23.806Z,0.30
2023-03-30T09:09:54.306Z,0.30
2023-03-30T09:12:34.916Z,0.30
2023-03-30T09:15:13.677Z,0.30
2023-03-30T09:17:49.158Z,0.30
2023-03-30T09:20:25.474Z,0.30
2023-03-30T09:22:56.394Z,0.30
2023-03-30T09:25:31.768Z,0.30
2023-03-30T09:28:23.762Z,0.30
2023-03-30T09:30:59.184Z,0.30
2023-03-30T09:33:35.053Z,0.30
2023-03-30T09:36:17.433Z,0.30
2023-03-30T09:38:47.057Z,0.30
2023-03-30T09:41:22.442Z,0.30
2023-03-30T09:43:52.567Z,0.30
2023-03-30T09:46:21.601Z,0.30
2023-03-30T09:48:52.031Z,0.30
2023-03-30T09:51:31.207Z,0.30
2023-03-30T09:54:01.359Z,0.30
2023-03-30T09:56:41.642Z,0.30
2023-03-30T09:59:35.684Z,0.30
2023-03-30T10:02:19.698Z,0.30
2023-03-30T10:04:54.982Z,0.30
2023-03-30T10:07:35.343Z,0.20
2023-03-30T10:10:22.279Z,0.30
2023-03-30T10:15:24.241Z,0.30
2023-03-30T10:17:56.876Z,0.30
2023-03-30T10:20:39.784Z,0.30
2023-03-30T10:23:19.535Z,0.30
2023-03-30T10:25:50.843Z,0.30
2023-03-30T10:28:38.186Z,0.30
2023-03-30T10:31:16.841Z,0.30
2023-03-30T10:33:46.448Z,0.30
2023-03-30T10:36:20.025Z,0.30
2023-03-30T10:38:49.160Z,0.30
2023-03-30T10:41:23.244Z,0.30
2023-03-30T10:43:52.821Z,0.30
2023-03-30T10:46:25.279Z,0.30
2023-03-30T10:49:05.851Z,0.30
2023-03-30T10:52:04.110Z,0.30
2023-03-30T10:54:43.963Z,0.30
2023-03-30T10:57:22.170Z,0.30
2023-03-30T10:59:58.592Z,0.30
2023-03-30T11:02:44.862Z,0.30
2023-03-30T11:05:34.353Z,0.30
2023-03-30T11:08:20.168Z,0.30
2023-03-30T11:10:51.276Z,0.30
2023-03-30T11:13:23.447Z,0.30
2023-03-30T11:16:09.241Z,0.30
2023-03-30T11:18:44.294Z,0.30
2023-03-30T11:21:37.005Z,0.30
2023-03-30T11:24:13.465Z,0.30
2023-03-30T11:26:50.972Z,0.30
2023-03-30T11:29:50.380Z,0.30
2023-03-30T11:32:42.395Z,0.30
2023-03-30T11:35:35.474Z,0.30
2023-03-30T11:38:19.537Z,0.30
2023-03-30T11:40:49.890Z,0.30
2023-03-30T11:43:27.033Z,0.30
2023-03-30T11:46:07.396Z,0.30
2023-03-30T11:48:54.714Z,0.30
2023-03-30T11:51:36.161Z,0.30
2023-03-30T11:54:23.078Z,0.30
2023-03-30T12:00:10.070Z,0.30
2023-03-30T12:02:59.160Z,0.30
2023-03-30T12:06:07.439Z,0.30
2023-03-30T12:09:03.130Z,0.30
2023-03-30T12:11:46.686Z,0.30
2023-03-30T12:14:31.203Z,0.30
2023-03-30T12:17:12.669Z,0.30
2023-03-30T12:19:56.411Z,0.30
2023-03-30T12:22:37.532Z,0.30
2023-03-30T12:25:29.488Z,0.30
2023-03-30T12:27:59.707Z,0.30
2023-03-30T12:30:48.995Z,0.30
2023-03-30T12:33:19.115Z,0.30
2023-03-30T12:35:50.741Z,0.30
2023-03-30T12:38:41.800Z,0.30
2023-03-30T12:41:18.730Z,0.30
2023-03-30T12:44:25.290Z,0.30
2023-03-30T12:47:06.179Z,0.30
2023-03-30T12:49:51.250Z,0.30
2023-03-30T12:52:48.936Z,0.30
2023-03-30T12:55:46.922Z,0.30
2023-03-30T12:58:56.280Z,0.30
2023-03-30T13:01:38.246Z,0.30
2023-03-30T13:04:17.429Z,0.30
2023-03-30T13:06:53.717Z,0.30
2023-03-30T13:09:24.078Z,0.30
2023-03-30T13:11:55.904Z,0.30
2023-03-30T13:14:36.685Z,0.30
2023-03-30T13:17:11.081Z,0.30
2023-03-30T13:19:45.567Z,0.30
2023-03-30T13:22:14.337Z,0.30
2023-03-30T13:24:43.302Z,0.30
2023-03-30T13:27:14.892Z,0.30
2023-03-30T13:29:53.326Z,0.30
2023-03-30T13:32:55.799Z,0.30
2023-03-30T13:35:36.138Z,0.30
2023-03-30T13:38:17.332Z,0.30
2023-03-30T13:41:09.212Z,0.30
2023-03-30T13:44:08.339Z,0.30
2023-03-30T13:46:50.317Z,0.30
2023-03-30T13:49:47.362Z,0.30
2023-03-30T13:52:26.079Z,0.30
2023-03-30T13:54:56.676Z,0.30
2023-03-30T13:57:39.576Z,0.30
2023-03-30T14:00:40.278Z,0.30
2023-03-30T14:03:42.305Z,0.30
2023-03-30T14:06:18.125Z,0.30
2023-03-30T14:08:48.971Z,0.30
2023-03-30T14:11:24.825Z,0.30
2023-03-30T14:13:54.592Z,0.30
2023-03-30T14:16:26.843Z,0.30
2023-03-30T14:19:25.100Z,0.30
2023-03-30T14:22:28.587Z,0.30
2023-03-30T14:25:00.393Z,0.30
2023-03-30T14:27:41.862Z,0.40
2023-03-30T14:30:30.429Z,0.40
2023-03-30T14:33:10.437Z,0.30
2023-03-30T14:35:43.853Z,0.30
2023-03-30T14:38:40.620Z,0.30
2023-03-30T14:41:18.162Z,0.40
2023-03-30T14:44:08.378Z,0.30
2023-03-30T14:46:57.135Z,0.30
2023-03-30T14:49:32.795Z,0.40
2023-03-30T14:52:23.735Z,0.40
2023-03-30T14:55:05.993Z,0.40
2023-03-30T14:57:41.664Z,0.40
2023-03-30T15:00:21.602Z,0.40
2023-03-30T15:03:02.373Z,0.30
2023-03-30T15:05:43.951Z,0.30
2023-03-30T15:08:27.201Z,0.40
2023-03-30T15:11:00.648Z,0.40
2023-03-30T15:13:38.529Z,0.40
2023-03-30T15:16:10.408Z,0.40
2023-03-30T15:18:40.437Z,0.40
2023-03-30T15:21:13.026Z,0.40
2023-03-30T15:23:45.650Z,0.40
2023-03-30T15:26:16.160Z,0.40
2023-03-30T15:28:58.050Z,0.40
2023-03-30T15:31:29.251Z,0.40
2023-03-30T15:34:01.551Z,0.45
2023-03-30T15:36:37.912Z,0.40
2023-03-30T15:39:34.304Z,0.50
2023-03-30T15:42:08.457Z,0.40
2023-03-30T15:44:39.749Z,0.40
2023-03-30T15:47:18.837Z,0.40
2023-03-30T15:49:51.762Z,0.40
2023-03-30T15:52:25.175Z,0.40
2023-03-30T15:54:55.948Z,0.40
2023-03-30T15:57:32.023Z,0.40
2023-03-30T16:00:12.011Z,0.40
2023-03-30T16:02:59.204Z,0.40
2023-03-30T16:05:36.662Z,0.40
2023-03-30T16:08:06.294Z,0.40
2023-03-30T16:10:38.005Z,0.40
2023-03-30T16:13:07.759Z,0.40
2023-03-30T16:15:36.683Z,0.40
2023-03-30T16:18:05.678Z,0.40
2023-03-30T16:20:35.401Z,0.40
2023-03-30T16:23:05.314Z,0.40
2023-03-30T16:25:44.278Z,0.40
2023-03-30T16:28:17.492Z,0.40
2023-03-30T16:30:49.602Z,0.40
2023-03-30T16:33:20.107Z,0.40
2023-03-30T16:35:49.138Z,0.40
2023-03-30T16:38:18.917Z,0.40
2023-03-30T16:40:59.454Z,0.40
2023-03-30T16:43:28.351Z,0.40
2023-03-30T16:45:59.946Z,0.40
2023-03-30T16:48:43.270Z,0.40
2023-03-30T16:51:14.016Z,0.40
2023-03-30T16:53:43.393Z,0.40
2023-03-30T16:56:18.162Z,0.40
2023-03-30T16:58:51.563Z,0.40
2023-03-30T17:01:29.904Z,0.40
2023-03-30T17:03:59.651Z,0.40
2023-03-30T17:06:28.550Z,0.40
2023-03-30T17:08:57.438Z,0.40
2023-03-30T17:11:26.455Z,0.40
2023-03-30T17:13:55.441Z,0.40
2023-03-30T17:16:27.914Z,0.40
2023-03-30T17:18:57.009Z,0.40
2023-03-30T17:21:26.131Z,0.40
2023-03-30T17:23:55.070Z,0.40
2023-03-30T17:26:24.392Z,0.40
2023-03-30T17:28:53.434Z,0.40
2023-03-30T17:31:24.523Z,0.40
2023-03-30T17:33:53.472Z,0.40
2023-03-30T17:36:27.101Z,0.40
2023-03-30T17:38:57.041Z,0.40
2023-03-30T17:41:27.427Z,0.40
2023-03-30T17:43:56.284Z,0.40
2023-03-30T17:46:25.137Z,0.40
2023-03-30T17:48:54.142Z,0.40
2023-03-30T17:51:23.046Z,0.40
2023-03-30T17:53:51.920Z,0.40
2023-03-30T17:56:20.790Z,0.40
2023-03-30T17:58:50.077Z,0.40
2023-03-30T18:01:19.978Z,0.40
2023-03-30T18:03:49.661Z,0.38
2023-03-30T18:06:18.879Z,0.40
2023-03-30T18:08:49.116Z,0.40
2023-03-30T18:11:18.317Z,0.40
2023-03-30T18:13:47.255Z,0.38
2023-03-30T18:16:18.434Z,0.40
2023-03-30T18:18:47.495Z,0.40
2023-03-30T18:21:16.567Z,0.40
2023-03-30T18:23:45.657Z,0.40
2023-03-30T18:26:14.879Z,0.40
2023-03-30T18:28:46.994Z,0.40
2023-03-30T18:31:16.252Z,0.40
2023-03-30T18:33:45.273Z,0.40
2023-03-30T18:36:15.210Z,0.40
2023-03-30T18:38:44.700Z,0.40
2023-03-30T18:41:13.949Z,0.40
2023-03-30T18:43:42.833Z,0.40
2023-03-30T18:46:14.758Z,0.40
2023-03-30T18:48:44.170Z,0.40
2023-03-30T18:51:13.548Z,0.40
2023-03-30T18:53:42.463Z,0.40
2023-03-30T18:56:14.110Z,0.45
2023-03-30T18:58:43.234Z,0.40
2023-03-30T19:01:13.958Z,0.40
2023-03-30T19:03:43.873Z,0.40
2023-03-30T19:06:16.631Z,0.40
2023-03-30T19:08:45.554Z,0.45
2023-03-30T19:11:22.534Z,0.40
2023-03-30T19:13:52.017Z,0.50
2023-03-30T19:16:22.845Z,0.40
2023-03-30T19:18:51.815Z,0.40
2023-03-30T19:21:21.133Z,0.40
2023-03-30T19:23:50.713Z,0.50
2023-03-30T19:26:19.542Z,0.40
2023-03-30T19:28:48.451Z,0.40
2023-03-30T19:31:17.473Z,0.50
2023-03-30T19:33:46.329Z,0.43
2023-03-30T19:36:15.269Z,0.50
2023-03-30T19:38:44.499Z,0.40
2023-03-30T19:41:13.479Z,0.43
2023-03-30T19:43:42.345Z,0.40
2023-03-30T19:46:11.363Z,0.40
2023-03-30T19:48:40.209Z,0.40
2023-03-30T19:51:09.021Z,0.40
2023-03-30T19:53:37.975Z,0.50
2023-03-30T19:56:11.688Z,0.40
2023-03-30T19:58:40.796Z,0.50
2023-03-30T20:01:11.169Z,0.43
2023-03-30T20:03:40.360Z,0.50
2023-03-30T20:06:12.179Z,0.50
2023-03-30T20:08:41.616Z,0.50
2023-03-30T20:11:11.830Z,0.43
2023-03-30T20:13:46.087Z,0.50
2023-03-30T20:16:21.857Z,0.40
2023-03-30T20:18:52.917Z,0.50
2023-03-30T20:21:23.766Z,0.40
2023-03-30T20:23:52.584Z,0.50
2023-03-30T20:26:21.863Z,0.50
2023-03-30T20:28:50.732Z,0.50
2023-03-30T20:31:19.759Z,0.50
2023-03-30T20:33:48.952Z,0.47
2023-03-30T20:36:18.013Z,0.50
2023-03-30T20:38:46.811Z,0.40
2023-03-30T20:41:16.744Z,0.50
2023-03-30T20:43:57.314Z,0.50
2023-03-30T20:46:26.602Z,0.50
2023-03-30T20:48:55.478Z,0.50
2023-03-30T20:51:24.694Z,0.50
2023-03-30T20:53:53.671Z,0.50
2023-03-30T20:56:22.613Z,0.45
2023-03-30T20:58:51.566Z,0.40
2023-03-30T21:01:26.086Z,0.50
2023-03-30T21:03:58.315Z,0.40
2023-03-30T21:06:29.210Z,0.50
2023-03-30T21:09:01.977Z,0.50
2023-03-30T21:11:34.166Z,0.50
2023-03-30T21:14:03.149Z,0.50
2023-03-30T21:16:32.465Z,0.40
2023-03-30T21:19:01.416Z,0.50
2023-03-30T21:21:31.870Z,0.50
2023-03-30T21:24:01.372Z,0.50
2023-03-30T21:26:30.769Z,0.50
2023-03-30T21:28:59.763Z,0.55
2023-03-30T21:31:28.800Z,0.50
2023-03-30T21:33:58.167Z,0.50
2023-03-30T21:36:27.533Z,0.40
2023-03-30T21:38:58.287Z,0.50
2023-03-30T21:41:29.449Z,0.50
2023-03-30T21:43:58.358Z,0.50
2023-03-30T21:46:27.669Z,0.60
2023-03-30T21:48:56.526Z,0.57
2023-03-30T21:51:28.000Z,0.50
2023-03-30T21:53:58.088Z,0.50
2023-03-30T21:56:29.682Z,0.50
2023-03-30T21:58:59.790Z,0.50
2023-03-30T22:01:29.846Z,0.50
2023-03-30T22:03:58.970Z,0.50
2023-03-30T22:06:28.546Z,0.50
2023-03-30T22:08:57.492Z,0.50
2023-03-30T22:11:27.131Z,0.60
2023-03-30T22:13:56.127Z,0.50
2023-03-30T22:16:26.338Z,0.50
2023-03-30T22:18:55.182Z,0.50
2023-03-30T22:21:26.649Z,0.55
2023-03-30T22:23:55.777Z,0.50
2023-03-30T22:26:24.958Z,0.50
2023-03-30T22:28:54.309Z,0.60
2023-03-30T22:31:23.318Z,0.50
2023-03-30T22:33:53.734Z,0.50
2023-03-30T22:36:30.647Z,0.50
2023-03-30T22:39:01.484Z,0.50
2023-03-30T22:41:30.592Z,0.50
2023-03-30T22:43:59.904Z,0.50
2023-03-30T22:46:31.362Z,0.50
2023-03-30T22:49:00.836Z,0.50
2023-03-30T22:51:29.817Z,0.60
2023-03-30T22:54:00.449Z,0.60
2023-03-30T22:56:31.358Z,0.50
2023-03-30T22:59:02.628Z,0.60
2023-03-30T23:01:32.868Z,0.50
2023-03-30T23:04:02.225Z,0.52
2023-03-30T23:06:32.431Z,0.50
2023-03-30T23:09:05.372Z,0.50
2023-03-30T23:11:34.740Z,0.60
2023-03-30T23:14:10.529Z,0.52
2023-03-30T23:16:39.439Z,0.60
2023-03-30T23:19:08.681Z,0.50
2023-03-30T23:21:37.507Z,0.50
2023-03-30T23:24:08.926Z,0.52
2023-03-30T23:26:38.147Z,0.50
2023-03-30T23:29:07.848Z,0.50
2023-03-30T23:31:36.804Z,0.50
2023-03-30T23:34:05.749Z,0.50
2023-03-30T23:36:35.507Z,0.50
2023-03-30T23:39:04.393Z,0.50
2023-03-30T23:41:33.297Z,0.50
2023-03-30T23:44:02.054Z,0.50
2023-03-30T23:46:31.443Z,0.50
2023-03-30T23:49:00.409Z,0.57
2023-03-30T23:51:29.419Z,0.60
2023-03-30T23:54:00.699Z,0.50
2023-03-30T23:56:32.649Z,0.50
2023-03-30T23:59:01.869Z,0.50
